Terminal Aerodrome Forecast
Issued by NWS King Salmon, AK

Home | Current Version | Previous Version | Text Only | Print | Product List | Glossary On
Versions: 1 2 3 4 5 6 7 8 9 10 11 12 13 14 15 16 17 18 19 20 21 22 23 24 25 26 27 28 29 30 31
000
FTAK31 PANC 251902 AAA
TAFAKN
TAF AMD
PAKN 251902Z 2519/2618 22008KT 6SM BR OVC003
      TEMPO 2519/2522 1/2SM FZFG OVC003
     FM252200 18008KT 1SM BR VCSH SCT003 OVC005
     FM260700 20008KT 1/2SM -SN FG OVC004=

USA.gov is the U.S. government's official web portal to all federal, state and local government web resources and services.